sensor_id;sensor_type;location;lat;lon;timestamp;temperature;humidity
14531;DHT22;7352;50.866;4.366;2022-12-20T00:00:07;13.10;99.90
14531;DHT22;7352;50.866;4.366;2022-12-20T00:02:36;13.20;99.90
14531;DHT22;7352;50.866;4.366;2022-12-20T00:05:04;13.20;99.90
14531;DHT22;7352;50.866;4.366;2022-12-20T00:07:31;13.20;99.90
14531;DHT22;7352;50.866;4.366;2022-12-20T00:09:58;13.10;99.90
14531;DHT22;7352;50.866;4.366;2022-12-20T00:12:26;13.10;99.90
14531;DHT22;7352;50.866;4.366;2022-12-20T00:14:53;13.20;99.90
14531;DHT22;7352;50.866;4.366;2022-12-20T00:17:20;13.20;99.90
14531;DHT22;7352;50.866;4.366;2022-12-20T00:19:49;13.30;99.90
14531;DHT22;7352;50.866;4.366;2022-12-20T00:22:16;13.20;99.90
14531;DHT22;7352;50.866;4.366;2022-12-20T00:24:43;13.20;99.90
14531;DHT22;7352;50.866;4.366;2022-12-20T00:27:10;13.20;99.90
14531;DHT22;7352;50.866;4.366;2022-12-20T00:29:37;13.10;99.90
14531;DHT22;7352;50.866;4.366;2022-12-20T00:32:04;13.20;99.90
14531;DHT22;7352;50.866;4.366;2022-12-20T00:34:31;13.00;99.90
14531;DHT22;7352;50.866;4.366;2022-12-20T00:36:59;13.10;99.90
14531;DHT22;7352;50.866;4.366;2022-12-20T00:39:26;13.10;99.90
14531;DHT22;7352;50.866;4.366;2022-12-20T00:41:53;13.10;99.90
14531;DHT22;7352;50.866;4.366;2022-12-20T00:44:20;13.00;99.90
14531;DHT22;7352;50.866;4.366;2022-12-20T00:46:47;13.10;99.90
14531;DHT22;7352;50.866;4.366;2022-12-20T00:49:14;13.00;99.90
14531;DHT22;7352;50.866;4.366;2022-12-20T00:51:41;13.10;99.90
14531;DHT22;7352;50.866;4.366;2022-12-20T00:54:09;13.20;99.90
14531;DHT22;7352;50.866;4.366;2022-12-20T00:56:37;13.10;99.90
14531;DHT22;7352;50.866;4.366;2022-12-20T00:59:07;13.20;99.90
14531;DHT22;7352;50.866;4.366;2022-12-20T01:01:34;13.10;99.90
14531;DHT22;7352;50.866;4.366;2022-12-20T01:04:01;13.20;99.90
14531;DHT22;7352;50.866;4.366;2022-12-20T01:06:29;13.20;99.90
14531;DHT22;7352;50.866;4.366;2022-12-20T01:08:56;13.20;99.90
14531;DHT22;7352;50.866;4.366;2022-12-20T01:11:26;13.20;99.90
14531;DHT22;7352;50.866;4.366;2022-12-20T01:13:55;13.20;99.90
14531;DHT22;7352;50.866;4.366;2022-12-20T01:16:26;13.20;99.90
14531;DHT22;7352;50.866;4.366;2022-12-20T01:18:53;13.20;99.90
14531;DHT22;7352;50.866;4.366;2022-12-20T01:21:21;13.10;99.90
14531;DHT22;7352;50.866;4.366;2022-12-20T01:23:49;13.00;99.90
14531;DHT22;7352;50.866;4.366;2022-12-20T01:26:19;13.00;99.90
14531;DHT22;7352;50.866;4.366;2022-12-20T01:28:52;13.00;99.90
14531;DHT22;7352;50.866;4.366;2022-12-20T01:31:20;13.10;99.90
14531;DHT22;7352;50.866;4.366;2022-12-20T01:33:47;13.00;99.90
14531;DHT22;7352;50.866;4.366;2022-12-20T01:36:16;12.90;99.90
14531;DHT22;7352;50.866;4.366;2022-12-20T01:38:44;13.00;99.90
14531;DHT22;7352;50.866;4.366;2022-12-20T01:41:14;12.90;99.90
14531;DHT22;7352;50.866;4.366;2022-12-20T01:43:49;12.90;99.90
14531;DHT22;7352;50.866;4.366;2022-12-20T01:46:19;12.90;99.90
14531;DHT22;7352;50.866;4.366;2022-12-20T01:48:49;12.80;99.90
14531;DHT22;7352;50.866;4.366;2022-12-20T01:51:18;12.70;99.90
14531;DHT22;7352;50.866;4.366;2022-12-20T01:53:46;12.80;99.90
14531;DHT22;7352;50.866;4.366;2022-12-20T01:56:14;12.80;99.90
14531;DHT22;7352;50.866;4.366;2022-12-20T01:58:42;12.80;99.90
14531;DHT22;7352;50.866;4.366;2022-12-20T02:01:13;12.70;99.90
14531;DHT22;7352;50.866;4.366;2022-12-20T02:03:41;12.80;99.90
14531;DHT22;7352;50.866;4.366;2022-12-20T02:06:19;12.90;99.90
14531;DHT22;7352;50.866;4.366;2022-12-20T02:08:49;13.00;99.90
14531;DHT22;7352;50.866;4.366;2022-12-20T02:11:54;12.90;99.90
14531;DHT22;7352;50.866;4.366;2022-12-20T02:14:35;12.90;99.90
14531;DHT22;7352;50.866;4.366;2022-12-20T02:17:11;12.90;99.90
14531;DHT22;7352;50.866;4.366;2022-12-20T02:20:01;12.80;99.90
14531;DHT22;7352;50.866;4.366;2022-12-20T02:22:45;12.90;99.90
14531;DHT22;7352;50.866;4.366;2022-12-20T02:25:25;12.80;99.90
14531;DHT22;7352;50.866;4.366;2022-12-20T02:28:00;12.90;99.90
14531;DHT22;7352;50.866;4.366;2022-12-20T02:30:37;12.80;99.90
14531;DHT22;7352;50.866;4.366;2022-12-20T02:33:35;12.80;99.90
14531;DHT22;7352;50.866;4.366;2022-12-20T02:36:25;12.90;99.90
14531;DHT22;7352;50.866;4.366;2022-12-20T02:38:52;12.90;99.90
14531;DHT22;7352;50.866;4.366;2022-12-20T02:41:23;12.90;99.90
14531;DHT22;7352;50.866;4.366;2022-12-20T02:44:06;12.90;99.90
14531;DHT22;7352;50.866;4.366;2022-12-20T02:46:53;12.90;99.90
14531;DHT22;7352;50.866;4.366;2022-12-20T02:49:24;12.90;99.90
14531;DHT22;7352;50.866;4.366;2022-12-20T02:51:54;12.90;99.90
14531;DHT22;7352;50.866;4.366;2022-12-20T02:54:22;12.90;99.90
14531;DHT22;7352;50.866;4.366;2022-12-20T02:56:54;13.00;99.90
14531;DHT22;7352;50.866;4.366;2022-12-20T02:59:24;13.00;99.90
14531;DHT22;7352;50.866;4.366;2022-12-20T03:01:56;13.00;99.90
14531;DHT22;7352;50.866;4.366;2022-12-20T03:04:25;12.90;99.90
14531;DHT22;7352;50.866;4.366;2022-12-20T03:06:58;13.00;99.90
14531;DHT22;7352;50.866;4.366;2022-12-20T03:09:26;12.90;99.90
14531;DHT22;7352;50.866;4.366;2022-12-20T03:11:54;13.10;99.90
14531;DHT22;7352;50.866;4.366;2022-12-20T03:14:22;13.20;99.90
14531;DHT22;7352;50.866;4.366;2022-12-20T03:16:50;13.10;99.90
14531;DHT22;7352;50.866;4.366;2022-12-20T03:19:19;13.00;99.90
14531;DHT22;7352;50.866;4.366;2022-12-20T03:21:46;13.10;99.90
14531;DHT22;7352;50.866;4.366;2022-12-20T03:24:13;13.10;99.90
14531;DHT22;7352;50.866;4.366;2022-12-20T03:26:41;13.00;99.90
14531;DHT22;7352;50.866;4.366;2022-12-20T03:29:08;12.90;99.90
14531;DHT22;7352;50.866;4.366;2022-12-20T03:31:36;13.00;99.90
14531;DHT22;7352;50.866;4.366;2022-12-20T03:34:04;13.10;99.90
14531;DHT22;7352;50.866;4.366;2022-12-20T03:36:32;13.20;99.90
14531;DHT22;7352;50.866;4.366;2022-12-20T03:39:00;13.30;99.90
14531;DHT22;7352;50.866;4.366;2022-12-20T03:41:27;13.10;99.90
14531;DHT22;7352;50.866;4.366;2022-12-20T03:43:54;13.10;99.90
14531;DHT22;7352;50.866;4.366;2022-12-20T03:46:21;13.20;99.90
14531;DHT22;7352;50.866;4.366;2022-12-20T03:48:48;13.20;99.90
14531;DHT22;7352;50.866;4.366;2022-12-20T03:51:15;13.30;99.90
14531;DHT22;7352;50.866;4.366;2022-12-20T03:53:43;13.30;99.90
14531;DHT22;7352;50.866;4.366;2022-12-20T03:56:10;13.40;99.90
14531;DHT22;7352;50.866;4.366;2022-12-20T03:58:37;13.30;99.90
14531;DHT22;7352;50.866;4.366;2022-12-20T04:01:19;13.30;99.90
14531;DHT22;7352;50.866;4.366;2022-12-20T04:03:46;13.20;99.90
14531;DHT22;7352;50.866;4.366;2022-12-20T04:06:13;13.30;99.90
14531;DHT22;7352;50.866;4.366;2022-12-20T04:08:40;13.20;99.90
14531;DHT22;7352;50.866;4.366;2022-12-20T04:11:09;13.20;99.90
14531;DHT22;7352;50.866;4.366;2022-12-20T04:13:43;13.10;99.90
14531;DHT22;7352;50.866;4.366;2022-12-20T04:16:10;13.10;99.90
14531;DHT22;7352;50.866;4.366;2022-12-20T04:18:38;13.00;99.90
14531;DHT22;7352;50.866;4.366;2022-12-20T04:21:07;13.00;99.90
14531;DHT22;7352;50.866;4.366;2022-12-20T04:23:35;13.00;99.90
14531;DHT22;7352;50.866;4.366;2022-12-20T04:26:04;13.00;99.90
14531;DHT22;7352;50.866;4.366;2022-12-20T04:28:35;13.00;99.90
14531;DHT22;7352;50.866;4.366;2022-12-20T04:31:03;13.00;99.90
14531;DHT22;7352;50.866;4.366;2022-12-20T04:33:32;13.00;99.90
14531;DHT22;7352;50.866;4.366;2022-12-20T04:36:01;13.00;99.90
14531;DHT22;7352;50.866;4.366;2022-12-20T04:38:31;13.10;99.90
14531;DHT22;7352;50.866;4.366;2022-12-20T04:40:58;13.00;99.90
14531;DHT22;7352;50.866;4.366;2022-12-20T04:43:25;12.90;99.90
14531;DHT22;7352;50.866;4.366;2022-12-20T04:45:55;13.00;99.90
14531;DHT22;7352;50.866;4.366;2022-12-20T04:48:23;13.00;99.90
14531;DHT22;7352;50.866;4.366;2022-12-20T04:50:52;12.90;99.90
14531;DHT22;7352;50.866;4.366;2022-12-20T04:53:20;12.90;99.90
14531;DHT22;7352;50.866;4.366;2022-12-20T04:56:08;13.00;99.90
14531;DHT22;7352;50.866;4.366;2022-12-20T04:58:39;12.90;99.90
14531;DHT22;7352;50.866;4.366;2022-12-20T05:01:08;13.00;99.90
14531;DHT22;7352;50.866;4.366;2022-12-20T05:03:39;13.00;99.90
14531;DHT22;7352;50.866;4.366;2022-12-20T05:06:07;13.00;99.90
14531;DHT22;7352;50.866;4.366;2022-12-20T05:08:35;12.90;99.90
14531;DHT22;7352;50.866;4.366;2022-12-20T05:11:02;12.90;99.90
14531;DHT22;7352;50.866;4.366;2022-12-20T05:13:31;13.00;99.90
14531;DHT22;7352;50.866;4.366;2022-12-20T05:16:01;13.10;99.90
14531;DHT22;7352;50.866;4.366;2022-12-20T05:18:30;13.00;99.90
14531;DHT22;7352;50.866;4.366;2022-12-20T05:20:59;13.00;99.90
14531;DHT22;7352;50.866;4.366;2022-12-20T05:23:43;13.00;99.90
14531;DHT22;7352;50.866;4.366;2022-12-20T05:26:30;13.10;99.90
14531;DHT22;7352;50.866;4.366;2022-12-20T05:28:58;13.00;99.90
14531;DHT22;7352;50.866;4.366;2022-12-20T05:31:25;13.00;99.90
14531;DHT22;7352;50.866;4.366;2022-12-20T05:33:53;12.90;99.90
14531;DHT22;7352;50.866;4.366;2022-12-20T05:36:22;13.00;99.90
14531;DHT22;7352;50.866;4.366;2022-12-20T05:38:52;12.90;99.90
14531;DHT22;7352;50.866;4.366;2022-12-20T05:41:20;13.00;99.90
14531;DHT22;7352;50.866;4.366;2022-12-20T05:43:47;13.10;99.90
14531;DHT22;7352;50.866;4.366;2022-12-20T05:46:14;13.00;99.90
14531;DHT22;7352;50.866;4.366;2022-12-20T05:48:41;13.10;99.90
14531;DHT22;7352;50.866;4.366;2022-12-20T05:51:10;13.00;99.90
14531;DHT22;7352;50.866;4.366;2022-12-20T05:53:37;12.90;99.90
14531;DHT22;7352;50.866;4.366;2022-12-20T05:56:04;13.00;99.90
14531;DHT22;7352;50.866;4.366;2022-12-20T05:58:32;13.10;99.90
14531;DHT22;7352;50.866;4.366;2022-12-20T06:01:00;13.20;99.90
14531;DHT22;7352;50.866;4.366;2022-12-20T06:03:27;13.20;99.90
14531;DHT22;7352;50.866;4.366;2022-12-20T06:05:56;13.10;99.90
14531;DHT22;7352;50.866;4.366;2022-12-20T06:08:25;13.00;99.90
14531;DHT22;7352;50.866;4.366;2022-12-20T06:10:53;13.00;99.90
14531;DHT22;7352;50.866;4.366;2022-12-20T06:13:20;13.00;99.90
14531;DHT22;7352;50.866;4.366;2022-12-20T06:15:47;13.10;99.90
14531;DHT22;7352;50.866;4.366;2022-12-20T06:18:29;13.20;99.90
14531;DHT22;7352;50.866;4.366;2022-12-20T06:21:41;13.10;99.90
14531;DHT22;7352;50.866;4.366;2022-12-20T06:24:21;13.20;99.90
14531;DHT22;7352;50.866;4.366;2022-12-20T06:27:18;13.30;99.90
14531;DHT22;7352;50.866;4.366;2022-12-20T06:30:24;13.30;99.90
14531;DHT22;7352;50.866;4.366;2022-12-20T06:42:35;13.20;99.90
14531;DHT22;7352;50.866;4.366;2022-12-20T06:45:39;13.30;99.90
14531;DHT22;7352;50.866;4.366;2022-12-20T06:51:56;13.40;99.90
14531;DHT22;7352;50.866;4.366;2022-12-20T06:57:03;13.40;99.90
14531;DHT22;7352;50.866;4.366;2022-12-20T07:33:39;13.10;99.90
14531;DHT22;7352;50.866;4.366;2022-12-20T07:36:07;13.10;99.90
14531;DHT22;7352;50.866;4.366;2022-12-20T07:38:35;13.00;99.90
14531;DHT22;7352;50.866;4.366;2022-12-20T07:41:16;12.90;99.90
14531;DHT22;7352;50.866;4.366;2022-12-20T07:43:45;12.90;99.90
14531;DHT22;7352;50.866;4.366;2022-12-20T07:46:20;12.90;99.90
14531;DHT22;7352;50.866;4.366;2022-12-20T07:48:55;12.70;99.90
14531;DHT22;7352;50.866;4.366;2022-12-20T07:51:26;12.60;99.90
14531;DHT22;7352;50.866;4.366;2022-12-20T07:53:58;12.60;99.90
14531;DHT22;7352;50.866;4.366;2022-12-20T07:56:27;12.50;99.90
14531;DHT22;7352;50.866;4.366;2022-12-20T07:58:57;12.50;99.90
14531;DHT22;7352;50.866;4.366;2022-12-20T08:01:28;12.60;99.90
14531;DHT22;7352;50.866;4.366;2022-12-20T08:04:01;12.70;99.90
14531;DHT22;7352;50.866;4.366;2022-12-20T08:06:33;12.70;99.90
14531;DHT22;7352;50.866;4.366;2022-12-20T08:09:03;12.70;99.90
14531;DHT22;7352;50.866;4.366;2022-12-20T08:11:33;12.70;99.90
14531;DHT22;7352;50.866;4.366;2022-12-20T08:14:01;12.80;99.90
14531;DHT22;7352;50.866;4.366;2022-12-20T08:16:30;12.80;99.90
14531;DHT22;7352;50.866;4.366;2022-12-20T08:18:59;12.80;99.90
14531;DHT22;7352;50.866;4.366;2022-12-20T08:21:26;12.80;99.90
14531;DHT22;7352;50.866;4.366;2022-12-20T08:23:53;12.70;99.90
14531;DHT22;7352;50.866;4.366;2022-12-20T08:26:21;12.70;99.90
14531;DHT22;7352;50.866;4.366;2022-12-20T08:28:48;12.60;99.90
14531;DHT22;7352;50.866;4.366;2022-12-20T08:31:15;12.50;99.90
14531;DHT22;7352;50.866;4.366;2022-12-20T08:33:42;12.60;99.90
14531;DHT22;7352;50.866;4.366;2022-12-20T08:36:11;12.60;99.90
14531;DHT22;7352;50.866;4.366;2022-12-20T08:38:40;12.60;99.90
14531;DHT22;7352;50.866;4.366;2022-12-20T08:41:09;12.70;99.90
14531;DHT22;7352;50.866;4.366;2022-12-20T08:43:37;12.50;99.90
14531;DHT22;7352;50.866;4.366;2022-12-20T08:46:05;12.70;99.90
14531;DHT22;7352;50.866;4.366;2022-12-20T08:48:36;12.70;99.90
14531;DHT22;7352;50.866;4.366;2022-12-20T08:51:06;12.70;99.90
14531;DHT22;7352;50.866;4.366;2022-12-20T08:53:35;12.80;99.90
14531;DHT22;7352;50.866;4.366;2022-12-20T08:56:04;12.80;99.90
14531;DHT22;7352;50.866;4.366;2022-12-20T08:58:34;12.90;99.90
14531;DHT22;7352;50.866;4.366;2022-12-20T09:01:08;12.90;99.90
14531;DHT22;7352;50.866;4.366;2022-12-20T09:03:40;12.90;99.90
14531;DHT22;7352;50.866;4.366;2022-12-20T09:06:13;12.90;99.90
14531;DHT22;7352;50.866;4.366;2022-12-20T09:08:41;12.80;99.90
14531;DHT22;7352;50.866;4.366;2022-12-20T09:11:12;12.60;99.90
14531;DHT22;7352;50.866;4.366;2022-12-20T09:13:42;12.60;99.90
14531;DHT22;7352;50.866;4.366;2022-12-20T09:16:19;12.70;99.90
14531;DHT22;7352;50.866;4.366;2022-12-20T09:18:52;12.70;99.90
14531;DHT22;7352;50.866;4.366;2022-12-20T09:21:19;12.70;99.90
14531;DHT22;7352;50.866;4.366;2022-12-20T09:23:52;12.80;99.90
14531;DHT22;7352;50.866;4.366;2022-12-20T09:26:23;12.80;99.90
14531;DHT22;7352;50.866;4.366;2022-12-20T09:28:51;12.90;99.90
14531;DHT22;7352;50.866;4.366;2022-12-20T09:31:22;13.10;99.90
14531;DHT22;7352;50.866;4.366;2022-12-20T09:33:52;13.10;99.90
14531;DHT22;7352;50.866;4.366;2022-12-20T09:36:21;13.10;99.90
14531;DHT22;7352;50.866;4.366;2022-12-20T09:38:50;13.20;99.90
14531;DHT22;7352;50.866;4.366;2022-12-20T09:41:26;13.10;99.90
14531;DHT22;7352;50.866;4.366;2022-12-20T09:43:54;13.20;99.90
14531;DHT22;7352;50.866;4.366;2022-12-20T09:46:24;13.10;99.90
14531;DHT22;7352;50.866;4.366;2022-12-20T09:48:52;13.00;99.90
14531;DHT22;7352;50.866;4.366;2022-12-20T09:51:40;13.10;99.90
14531;DHT22;7352;50.866;4.366;2022-12-20T09:54:18;13.00;99.90
14531;DHT22;7352;50.866;4.366;2022-12-20T09:56:57;12.90;99.90
14531;DHT22;7352;50.866;4.366;2022-12-20T09:59:25;12.90;99.90
14531;DHT22;7352;50.866;4.366;2022-12-20T10:01:53;12.90;99.90
14531;DHT22;7352;50.866;4.366;2022-12-20T10:04:22;12.70;99.90
14531;DHT22;7352;50.866;4.366;2022-12-20T10:06:58;12.70;99.90
14531;DHT22;7352;50.866;4.366;2022-12-20T10:09:46;12.70;99.90
14531;DHT22;7352;50.866;4.366;2022-12-20T10:12:26;12.60;99.90
14531;DHT22;7352;50.866;4.366;2022-12-20T10:15:18;12.80;99.90
14531;DHT22;7352;50.866;4.366;2022-12-20T10:17:56;12.90;99.90
14531;DHT22;7352;50.866;4.366;2022-12-20T10:20:35;12.90;99.90
14531;DHT22;7352;50.866;4.366;2022-12-20T10:23:11;13.00;99.90
14531;DHT22;7352;50.866;4.366;2022-12-20T10:25:46;12.90;99.90
14531;DHT22;7352;50.866;4.366;2022-12-20T10:28:25;12.80;99.90
14531;DHT22;7352;50.866;4.366;2022-12-20T10:30:56;12.70;99.90
14531;DHT22;7352;50.866;4.366;2022-12-20T10:33:24;12.80;99.90
14531;DHT22;7352;50.866;4.366;2022-12-20T10:35:52;12.80;99.90
14531;DHT22;7352;50.866;4.366;2022-12-20T10:38:20;12.90;99.90
14531;DHT22;7352;50.866;4.366;2022-12-20T10:40:59;12.80;99.90
14531;DHT22;7352;50.866;4.366;2022-12-20T10:43:37;12.90;99.90
14531;DHT22;7352;50.866;4.366;2022-12-20T10:46:10;12.80;99.90
14531;DHT22;7352;50.866;4.366;2022-12-20T10:48:39;12.70;99.90
14531;DHT22;7352;50.866;4.366;2022-12-20T10:51:14;12.70;99.90
14531;DHT22;7352;50.866;4.366;2022-12-20T10:53:53;12.60;99.90
14531;DHT22;7352;50.866;4.366;2022-12-20T10:56:28;12.60;99.90
14531;DHT22;7352;50.866;4.366;2022-12-20T10:58:58;12.50;99.90
14531;DHT22;7352;50.866;4.366;2022-12-20T11:01:28;12.50;99.90
14531;DHT22;7352;50.866;4.366;2022-12-20T11:03:59;12.50;99.90
14531;DHT22;7352;50.866;4.366;2022-12-20T11:06:40;12.50;99.90
14531;DHT22;7352;50.866;4.366;2022-12-20T11:09:26;12.50;99.90
14531;DHT22;7352;50.866;4.366;2022-12-20T11:12:03;12.50;99.90
14531;DHT22;7352;50.866;4.366;2022-12-20T11:14:34;12.60;99.90
14531;DHT22;7352;50.866;4.366;2022-12-20T11:17:04;12.40;99.90
14531;DHT22;7352;50.866;4.366;2022-12-20T11:20:19;12.40;99.90
14531;DHT22;7352;50.866;4.366;2022-12-20T11:23:14;12.40;99.90
14531;DHT22;7352;50.866;4.366;2022-12-20T11:25:55;12.50;99.90
14531;DHT22;7352;50.866;4.366;2022-12-20T11:28:43;12.50;99.90
14531;DHT22;7352;50.866;4.366;2022-12-20T11:31:15;12.40;99.90
14531;DHT22;7352;50.866;4.366;2022-12-20T11:34:01;12.30;99.90
14531;DHT22;7352;50.866;4.366;2022-12-20T11:36:38;12.30;99.90
14531;DHT22;7352;50.866;4.366;2022-12-20T11:39:21;12.20;99.90
14531;DHT22;7352;50.866;4.366;2022-12-20T11:41:58;12.20;99.90
14531;DHT22;7352;50.866;4.366;2022-12-20T11:44:35;12.20;99.90
14531;DHT22;7352;50.866;4.366;2022-12-20T11:47:51;12.20;99.90
14531;DHT22;7352;50.866;4.366;2022-12-20T11:50:46;12.20;99.90
14531;DHT22;7352;50.866;4.366;2022-12-20T11:53:20;12.20;99.90
14531;DHT22;7352;50.866;4.366;2022-12-20T11:55:52;12.30;99.90
14531;DHT22;7352;50.866;4.366;2022-12-20T11:58:24;12.20;99.90
14531;DHT22;7352;50.866;4.366;2022-12-20T12:00:58;12.30;99.90
14531;DHT22;7352;50.866;4.366;2022-12-20T12:03:33;12.10;99.90
14531;DHT22;7352;50.866;4.366;2022-12-20T12:06:08;12.10;99.90
14531;DHT22;7352;50.866;4.366;2022-12-20T12:08:45;12.10;99.90
14531;DHT22;7352;50.866;4.366;2022-12-20T12:11:30;12.10;99.90
14531;DHT22;7352;50.866;4.366;2022-12-20T12:14:17;12.20;99.90
14531;DHT22;7352;50.866;4.366;2022-12-20T12:20:13;12.30;99.90
14531;DHT22;7352;50.866;4.366;2022-12-20T12:22:43;12.20;99.90
14531;DHT22;7352;50.866;4.366;2022-12-20T12:25:16;12.10;99.90
14531;DHT22;7352;50.866;4.366;2022-12-20T12:27:51;12.20;99.90
14531;DHT22;7352;50.866;4.366;2022-12-20T12:30:18;12.30;99.90
14531;DHT22;7352;50.866;4.366;2022-12-20T12:32:51;12.20;99.90
14531;DHT22;7352;50.866;4.366;2022-12-20T12:38:54;12.20;99.90
14531;DHT22;7352;50.866;4.366;2022-12-20T12:42:06;12.10;99.90
14531;DHT22;7352;50.866;4.366;2022-12-20T12:44:42;12.10;99.90
14531;DHT22;7352;50.866;4.366;2022-12-20T12:47:20;12.00;99.90
14531;DHT22;7352;50.866;4.366;2022-12-20T12:49:51;12.20;99.90
14531;DHT22;7352;50.866;4.366;2022-12-20T12:52:42;12.10;99.90
14531;DHT22;7352;50.866;4.366;2022-12-20T13:01:11;11.90;99.90
14531;DHT22;7352;50.866;4.366;2022-12-20T13:09:40;11.80;99.90
14531;DHT22;7352;50.866;4.366;2022-12-20T13:12:52;11.80;99.90
14531;DHT22;7352;50.866;4.366;2022-12-20T13:15:49;11.80;99.90
14531;DHT22;7352;50.866;4.366;2022-12-20T13:18:24;11.90;99.90
14531;DHT22;7352;50.866;4.366;2022-12-20T13:21:27;11.90;99.90
14531;DHT22;7352;50.866;4.366;2022-12-20T13:24:33;11.90;99.90
14531;DHT22;7352;50.866;4.366;2022-12-20T13:30:24;12.00;99.90
14531;DHT22;7352;50.866;4.366;2022-12-20T13:33:20;12.10;99.90
14531;DHT22;7352;50.866;4.366;2022-12-20T13:38:51;11.90;99.90
14531;DHT22;7352;50.866;4.366;2022-12-20T13:41:39;12.00;99.90
14531;DHT22;7352;50.866;4.366;2022-12-20T13:44:30;12.10;99.90
14531;DHT22;7352;50.866;4.366;2022-12-20T13:47:05;12.10;99.90
14531;DHT22;7352;50.866;4.366;2022-12-20T13:49:41;12.00;99.90
14531;DHT22;7352;50.866;4.366;2022-12-20T13:52:16;12.10;99.90
14531;DHT22;7352;50.866;4.366;2022-12-20T13:54:45;12.10;99.90
14531;DHT22;7352;50.866;4.366;2022-12-20T13:57:16;12.00;99.90
14531;DHT22;7352;50.866;4.366;2022-12-20T13:59:49;11.90;99.90
14531;DHT22;7352;50.866;4.366;2022-12-20T14:02:22;12.00;99.90
14531;DHT22;7352;50.866;4.366;2022-12-20T14:04:55;12.00;99.90
14531;DHT22;7352;50.866;4.366;2022-12-20T14:07:26;11.90;99.90
14531;DHT22;7352;50.866;4.366;2022-12-20T14:09:56;11.90;99.90
14531;DHT22;7352;50.866;4.366;2022-12-20T14:12:24;11.90;99.90
14531;DHT22;7352;50.866;4.366;2022-12-20T14:14:57;12.00;99.90
14531;DHT22;7352;50.866;4.366;2022-12-20T14:17:27;12.00;99.90
14531;DHT22;7352;50.866;4.366;2022-12-20T14:20:12;12.00;99.90
14531;DHT22;7352;50.866;4.366;2022-12-20T14:22:48;11.90;99.90
14531;DHT22;7352;50.866;4.366;2022-12-20T14:25:26;11.90;99.90
14531;DHT22;7352;50.866;4.366;2022-12-20T14:27:55;12.00;99.90
14531;DHT22;7352;50.866;4.366;2022-12-20T14:30:41;12.00;99.90
14531;DHT22;7352;50.866;4.366;2022-12-20T14:33:18;12.00;99.90
14531;DHT22;7352;50.866;4.366;2022-12-20T14:35:47;12.00;99.90
14531;DHT22;7352;50.866;4.366;2022-12-20T14:38:21;12.00;99.90
14531;DHT22;7352;50.866;4.366;2022-12-20T14:40:48;12.10;99.90
14531;DHT22;7352;50.866;4.366;2022-12-20T14:43:26;12.20;99.90
14531;DHT22;7352;50.866;4.366;2022-12-20T14:46:16;12.20;99.90
14531;DHT22;7352;50.866;4.366;2022-12-20T14:48:45;12.20;99.90
14531;DHT22;7352;50.866;4.366;2022-12-20T14:51:18;12.00;99.90
14531;DHT22;7352;50.866;4.366;2022-12-20T14:53:47;12.10;99.90
14531;DHT22;7352;50.866;4.366;2022-12-20T14:56:19;12.00;99.90
14531;DHT22;7352;50.866;4.366;2022-12-20T14:59:02;12.00;99.90
14531;DHT22;7352;50.866;4.366;2022-12-20T15:01:32;11.90;99.90
14531;DHT22;7352;50.866;4.366;2022-12-20T15:04:00;11.90;99.90
14531;DHT22;7352;50.866;4.366;2022-12-20T15:06:32;11.90;99.90
14531;DHT22;7352;50.866;4.366;2022-12-20T15:09:06;11.90;99.90
14531;DHT22;7352;50.866;4.366;2022-12-20T15:11:35;11.90;99.90
14531;DHT22;7352;50.866;4.366;2022-12-20T15:14:11;11.90;99.90
14531;DHT22;7352;50.866;4.366;2022-12-20T15:16:47;11.80;99.90
14531;DHT22;7352;50.866;4.366;2022-12-20T15:19:16;11.80;99.90
14531;DHT22;7352;50.866;4.366;2022-12-20T15:21:44;11.80;99.90
14531;DHT22;7352;50.866;4.366;2022-12-20T15:24:14;11.80;99.90
14531;DHT22;7352;50.866;4.366;2022-12-20T15:26:44;11.80;99.90
14531;DHT22;7352;50.866;4.366;2022-12-20T15:29:14;11.90;99.90
14531;DHT22;7352;50.866;4.366;2022-12-20T15:31:45;11.90;99.90
14531;DHT22;7352;50.866;4.366;2022-12-20T15:34:18;11.90;99.90
14531;DHT22;7352;50.866;4.366;2022-12-20T15:36:47;11.90;99.90
14531;DHT22;7352;50.866;4.366;2022-12-20T15:39:14;12.00;99.90
14531;DHT22;7352;50.866;4.366;2022-12-20T15:41:49;11.90;99.90
14531;DHT22;7352;50.866;4.366;2022-12-20T15:44:19;12.00;99.90
14531;DHT22;7352;50.866;4.366;2022-12-20T15:46:48;11.90;99.90
14531;DHT22;7352;50.866;4.366;2022-12-20T15:49:19;11.70;99.90
14531;DHT22;7352;50.866;4.366;2022-12-20T15:51:48;11.80;99.90
14531;DHT22;7352;50.866;4.366;2022-12-20T15:54:21;11.80;99.90
14531;DHT22;7352;50.866;4.366;2022-12-20T15:56:49;11.80;99.90
14531;DHT22;7352;50.866;4.366;2022-12-20T15:59:16;11.90;99.90
14531;DHT22;7352;50.866;4.366;2022-12-20T16:01:43;12.10;99.90
14531;DHT22;7352;50.866;4.366;2022-12-20T16:04:15;12.00;99.90
14531;DHT22;7352;50.866;4.366;2022-12-20T16:06:46;12.00;99.90
14531;DHT22;7352;50.866;4.366;2022-12-20T16:09:22;12.10;99.90
14531;DHT22;7352;50.866;4.366;2022-12-20T16:11:52;12.00;99.90
14531;DHT22;7352;50.866;4.366;2022-12-20T16:14:22;12.00;99.90
14531;DHT22;7352;50.866;4.366;2022-12-20T16:16:52;11.90;99.90
14531;DHT22;7352;50.866;4.366;2022-12-20T16:19:20;12.00;99.90
14531;DHT22;7352;50.866;4.366;2022-12-20T16:21:49;12.00;99.90
14531;DHT22;7352;50.866;4.366;2022-12-20T16:24:19;12.00;99.90
14531;DHT22;7352;50.866;4.366;2022-12-20T16:26:47;12.10;99.90
14531;DHT22;7352;50.866;4.366;2022-12-20T16:29:16;12.10;99.90
14531;DHT22;7352;50.866;4.366;2022-12-20T16:31:43;12.00;99.90
14531;DHT22;7352;50.866;4.366;2022-12-20T16:34:12;12.00;99.90
14531;DHT22;7352;50.866;4.366;2022-12-20T16:36:45;12.00;99.90
14531;DHT22;7352;50.866;4.366;2022-12-20T16:39:16;12.10;99.90
14531;DHT22;7352;50.866;4.366;2022-12-20T16:41:44;12.00;99.90
14531;DHT22;7352;50.866;4.366;2022-12-20T16:44:25;12.10;99.90
14531;DHT22;7352;50.866;4.366;2022-12-20T16:46:54;12.10;99.90
14531;DHT22;7352;50.866;4.366;2022-12-20T16:49:21;12.10;99.90
14531;DHT22;7352;50.866;4.366;2022-12-20T16:51:55;12.20;99.90
14531;DHT22;7352;50.866;4.366;2022-12-20T16:54:47;12.00;99.90
14531;DHT22;7352;50.866;4.366;2022-12-20T16:57:23;11.90;99.90
14531;DHT22;7352;50.866;4.366;2022-12-20T16:59:53;11.80;99.90
14531;DHT22;7352;50.866;4.366;2022-12-20T17:05:36;11.90;99.90
14531;DHT22;7352;50.866;4.366;2022-12-20T17:08:14;11.80;99.90
14531;DHT22;7352;50.866;4.366;2022-12-20T17:10:43;11.80;99.90
14531;DHT22;7352;50.866;4.366;2022-12-20T17:13:25;11.90;99.90
14531;DHT22;7352;50.866;4.366;2022-12-20T17:15:52;11.90;99.90
14531;DHT22;7352;50.866;4.366;2022-12-20T17:18:21;11.80;99.90
14531;DHT22;7352;50.866;4.366;2022-12-20T17:20:49;11.80;99.90
14531;DHT22;7352;50.866;4.366;2022-12-20T17:23:19;11.80;99.90
14531;DHT22;7352;50.866;4.366;2022-12-20T17:26:03;11.80;99.90
14531;DHT22;7352;50.866;4.366;2022-12-20T17:28:38;11.70;99.90
14531;DHT22;7352;50.866;4.366;2022-12-20T17:31:21;11.80;99.90
14531;DHT22;7352;50.866;4.366;2022-12-20T17:33:53;11.80;99.90
14531;DHT22;7352;50.866;4.366;2022-12-20T17:36:22;11.70;99.90
14531;DHT22;7352;50.866;4.366;2022-12-20T17:38:59;11.80;99.90